Ashland, New Jersey
Current Conditions -  °F | °C
As of 5:11 PM on Monday 26 Jan 2015 (Local Time) from KVAY Reporting Station
Haze Haze  
Wind Chill: 14°   Ceiling: 1400
Heat Index: 26°   Visibility: 2mi
Dew Point: 22°   Wind: 14mph
Humidity: 84%   Direction: 30°NNE
Pressure: 29.77"   Gusts: NA
Location:  39.9056°N, 74.9993°W
Report Text: KVAY 262211Z AUTO 03012KT 2SM BR BKN014 OVC020 M03/M06 A2977 RMK AO2 T10331056
Loading
Personal Weather Stations






























Interactive Weather Map New forecast layout! Learn more

10-Day Weather Forecast

Advertisements
Track Severe Weather on mobile